sensor_id;sensor_type;location;lat;lon;timestamp;pressure;altitude;pressure_sealevel;temperature;humidity
15229;BME280;7717;47.792;12.076;2022-12-07T00:01:14;96141.25;;;2.60;100.00
15229;BME280;7717;47.792;12.076;2022-12-07T00:03:42;96139.63;;;2.62;100.00
15229;BME280;7717;47.792;12.076;2022-12-07T00:06:09;96139.13;;;2.44;100.00
15229;BME280;7717;47.792;12.076;2022-12-07T00:08:36;96137.66;;;2.50;100.00
15229;BME280;7717;47.792;12.076;2022-12-07T00:11:12;96134.09;;;2.44;100.00
15229;BME280;7717;47.792;12.076;2022-12-07T00:13:39;96142.63;;;2.47;100.00
15229;BME280;7717;47.792;12.076;2022-12-07T00:16:14;96144.28;;;2.47;100.00
15229;BME280;7717;47.792;12.076;2022-12-07T00:18:40;96137.53;;;2.46;100.00
15229;BME280;7717;47.792;12.076;2022-12-07T00:21:08;96138.41;;;2.48;100.00
15229;BME280;7717;47.792;12.076;2022-12-07T00:23:34;96143.50;;;2.49;100.00
15229;BME280;7717;47.792;12.076;2022-12-07T00:26:14;96136.72;;;2.48;100.00
15229;BME280;7717;47.792;12.076;2022-12-07T00:28:40;96133.47;;;2.52;100.00
15229;BME280;7717;47.792;12.076;2022-12-07T00:31:07;96139.28;;;2.50;100.00
15229;BME280;7717;47.792;12.076;2022-12-07T00:33:34;96135.44;;;2.63;100.00
15229;BME280;7717;47.792;12.076;2022-12-07T00:36:01;96129.63;;;2.67;100.00
15229;BME280;7717;47.792;12.076;2022-12-07T00:38:29;96132.94;;;2.64;100.00
15229;BME280;7717;47.792;12.076;2022-12-07T00:40:56;96130.50;;;2.67;100.00
15229;BME280;7717;47.792;12.076;2022-12-07T00:43:22;96127.75;;;2.58;100.00
15229;BME280;7717;47.792;12.076;2022-12-07T00:45:47;96125.25;;;2.60;100.00
15229;BME280;7717;47.792;12.076;2022-12-07T00:48:12;96124.19;;;2.51;100.00
15229;BME280;7717;47.792;12.076;2022-12-07T00:50:38;96125.94;;;2.54;100.00
15229;BME280;7717;47.792;12.076;2022-12-07T00:53:03;96131.84;;;2.55;100.00
15229;BME280;7717;47.792;12.076;2022-12-07T00:55:33;96129.22;;;2.51;100.00
15229;BME280;7717;47.792;12.076;2022-12-07T00:57:58;96128.50;;;2.56;100.00
15229;BME280;7717;47.792;12.076;2022-12-07T01:00:23;96131.13;;;2.59;100.00
15229;BME280;7717;47.792;12.076;2022-12-07T01:02:49;96124.25;;;2.55;100.00
15229;BME280;7717;47.792;12.076;2022-12-07T01:05:14;96127.78;;;2.60;100.00
15229;BME280;7717;47.792;12.076;2022-12-07T01:07:39;96129.78;;;2.73;100.00
15229;BME280;7717;47.792;12.076;2022-12-07T01:10:05;96135.53;;;2.66;100.00
15229;BME280;7717;47.792;12.076;2022-12-07T01:12:31;96132.31;;;2.73;100.00
15229;BME280;7717;47.792;12.076;2022-12-07T01:14:56;96130.63;;;2.72;100.00
15229;BME280;7717;47.792;12.076;2022-12-07T01:17:22;96130.72;;;2.77;100.00
15229;BME280;7717;47.792;12.076;2022-12-07T01:19:47;96134.06;;;2.76;100.00
15229;BME280;7717;47.792;12.076;2022-12-07T01:22:12;96135.06;;;2.82;100.00
15229;BME280;7717;47.792;12.076;2022-12-07T01:24:38;96125.72;;;2.78;100.00
15229;BME280;7717;47.792;12.076;2022-12-07T01:27:03;96131.47;;;2.73;100.00
15229;BME280;7717;47.792;12.076;2022-12-07T01:29:28;96136.19;;;2.60;100.00
15229;BME280;7717;47.792;12.076;2022-12-07T01:31:54;96133.72;;;2.62;100.00
15229;BME280;7717;47.792;12.076;2022-12-07T01:34:19;96127.06;;;2.65;100.00
15229;BME280;7717;47.792;12.076;2022-12-07T01:36:44;96128.94;;;2.73;100.00
15229;BME280;7717;47.792;12.076;2022-12-07T01:39:10;96126.34;;;2.69;100.00
15229;BME280;7717;47.792;12.076;2022-12-07T01:41:37;96127.13;;;2.68;100.00
15229;BME280;7717;47.792;12.076;2022-12-07T01:46:37;96120.28;;;2.63;100.00
15229;BME280;7717;47.792;12.076;2022-12-07T01:49:08;96117.81;;;2.66;100.00
15229;BME280;7717;47.792;12.076;2022-12-07T01:51:37;96111.25;;;2.73;100.00
15229;BME280;7717;47.792;12.076;2022-12-07T01:54:05;96113.03;;;2.77;100.00
15229;BME280;7717;47.792;12.076;2022-12-07T01:56:31;96121.53;;;2.80;100.00
15229;BME280;7717;47.792;12.076;2022-12-07T01:58:58;96118.88;;;2.74;100.00
15229;BME280;7717;47.792;12.076;2022-12-07T02:01:25;96120.34;;;2.66;100.00
15229;BME280;7717;47.792;12.076;2022-12-07T02:03:51;96123.44;;;2.56;100.00
15229;BME280;7717;47.792;12.076;2022-12-07T02:06:19;96117.72;;;2.61;100.00
15229;BME280;7717;47.792;12.076;2022-12-07T02:08:46;96126.94;;;2.61;100.00
15229;BME280;7717;47.792;12.076;2022-12-07T02:11:12;96121.94;;;2.62;100.00
15229;BME280;7717;47.792;12.076;2022-12-07T02:13:40;96117.72;;;2.61;100.00
15229;BME280;7717;47.792;12.076;2022-12-07T02:22:04;96112.47;;;2.54;100.00
15229;BME280;7717;47.792;12.076;2022-12-07T02:24:42;96116.53;;;2.48;100.00
15229;BME280;7717;47.792;12.076;2022-12-07T02:27:32;96110.69;;;2.51;100.00
15229;BME280;7717;47.792;12.076;2022-12-07T02:30:07;96113.03;;;2.43;100.00
15229;BME280;7717;47.792;12.076;2022-12-07T02:32:51;96111.47;;;2.48;100.00
15229;BME280;7717;47.792;12.076;2022-12-07T02:35:23;96113.22;;;2.51;100.00
15229;BME280;7717;47.792;12.076;2022-12-07T02:40:38;96114.59;;;2.38;100.00
15229;BME280;7717;47.792;12.076;2022-12-07T02:43:16;96114.69;;;2.41;100.00
15229;BME280;7717;47.792;12.076;2022-12-07T02:45:44;96104.53;;;2.40;100.00
15229;BME280;7717;47.792;12.076;2022-12-07T02:48:13;96102.84;;;2.40;100.00
15229;BME280;7717;47.792;12.076;2022-12-07T02:50:52;96105.47;;;2.43;100.00
15229;BME280;7717;47.792;12.076;2022-12-07T02:56:03;96103.59;;;2.36;100.00
15229;BME280;7717;47.792;12.076;2022-12-07T02:58:52;96099.34;;;2.35;100.00
15229;BME280;7717;47.792;12.076;2022-12-07T03:01:30;96104.34;;;2.32;100.00
15229;BME280;7717;47.792;12.076;2022-12-07T03:04:16;96103.59;;;2.36;100.00
15229;BME280;7717;47.792;12.076;2022-12-07T03:06:53;96104.25;;;2.29;100.00
15229;BME280;7717;47.792;12.076;2022-12-07T03:09:32;96090.69;;;2.25;100.00
15229;BME280;7717;47.792;12.076;2022-12-07T03:12:08;96094.16;;;2.29;100.00
15229;BME280;7717;47.792;12.076;2022-12-07T03:14:39;96097.47;;;2.28;100.00
15229;BME280;7717;47.792;12.076;2022-12-07T03:17:13;96098.28;;;2.25;100.00
15229;BME280;7717;47.792;12.076;2022-12-07T03:19:41;96097.41;;;2.25;100.00
15229;BME280;7717;47.792;12.076;2022-12-07T03:22:10;96101.69;;;2.27;100.00
15229;BME280;7717;47.792;12.076;2022-12-07T03:24:45;96088.00;;;2.19;100.00
15229;BME280;7717;47.792;12.076;2022-12-07T03:27:25;96105.09;;;2.29;100.00
15229;BME280;7717;47.792;12.076;2022-12-07T03:29:55;96103.66;;;2.38;100.00
15229;BME280;7717;47.792;12.076;2022-12-07T03:42:48;96096.19;;;2.42;100.00
15229;BME280;7717;47.792;12.076;2022-12-07T03:45:14;96089.41;;;2.41;100.00
15229;BME280;7717;47.792;12.076;2022-12-07T03:47:53;96096.09;;;2.39;100.00
15229;BME280;7717;47.792;12.076;2022-12-07T03:50:45;96097.81;;;2.40;100.00
15229;BME280;7717;47.792;12.076;2022-12-07T03:53:33;96096.09;;;2.39;100.00
15229;BME280;7717;47.792;12.076;2022-12-07T03:56:00;96097.88;;;2.43;100.00
15229;BME280;7717;47.792;12.076;2022-12-07T03:58:27;96083.25;;;2.30;100.00
15229;BME280;7717;47.792;12.076;2022-12-07T04:00:53;96089.97;;;2.31;100.00
15229;BME280;7717;47.792;12.076;2022-12-07T04:03:18;96090.66;;;2.24;100.00
15229;BME280;7717;47.792;12.076;2022-12-07T04:05:44;96074.31;;;2.11;100.00
15229;BME280;7717;47.792;12.076;2022-12-07T04:08:09;96072.75;;;2.14;100.00
15229;BME280;7717;47.792;12.076;2022-12-07T04:10:35;96085.59;;;2.24;100.00
15229;BME280;7717;47.792;12.076;2022-12-07T04:13:00;96086.66;;;2.32;100.00
15229;BME280;7717;47.792;12.076;2022-12-07T04:15:25;96084.97;;;2.32;100.00
15229;BME280;7717;47.792;12.076;2022-12-07T04:17:51;96084.13;;;2.32;100.00
15229;BME280;7717;47.792;12.076;2022-12-07T04:20:16;96093.53;;;2.38;100.00
15229;BME280;7717;47.792;12.076;2022-12-07T04:22:42;96083.47;;;2.39;100.00
15229;BME280;7717;47.792;12.076;2022-12-07T04:25:07;96084.28;;;2.38;100.00
15229;BME280;7717;47.792;12.076;2022-12-07T04:27:33;96084.31;;;2.40;100.00
15229;BME280;7717;47.792;12.076;2022-12-07T04:29:59;96097.75;;;2.39;100.00
15229;BME280;7717;47.792;12.076;2022-12-07T04:32:24;96088.50;;;2.38;100.00
15229;BME280;7717;47.792;12.076;2022-12-07T04:34:50;96091.81;;;2.37;100.00
15229;BME280;7717;47.792;12.076;2022-12-07T04:37:16;96089.25;;;2.35;100.00
15229;BME280;7717;47.792;12.076;2022-12-07T04:39:42;96090.09;;;2.36;100.00
15229;BME280;7717;47.792;12.076;2022-12-07T04:42:10;96084.13;;;2.32;100.00
15229;BME280;7717;47.792;12.076;2022-12-07T04:44:35;96080.63;;;2.27;100.00
15229;BME280;7717;47.792;12.076;2022-12-07T04:47:01;96080.63;;;2.27;100.00
15229;BME280;7717;47.792;12.076;2022-12-07T04:49:26;96085.72;;;2.28;100.00
15229;BME280;7717;47.792;12.076;2022-12-07T04:51:52;96078.03;;;2.24;100.00
15229;BME280;7717;47.792;12.076;2022-12-07T04:54:18;96078.16;;;2.28;100.00
15229;BME280;7717;47.792;12.076;2022-12-07T04:56:43;96079.84;;;2.29;100.00
15229;BME280;7717;47.792;12.076;2022-12-07T04:59:10;96071.22;;;2.21;100.00
15229;BME280;7717;47.792;12.076;2022-12-07T05:01:36;96077.91;;;2.19;100.00
15229;BME280;7717;47.792;12.076;2022-12-07T05:04:01;96084.69;;;2.22;100.00
15229;BME280;7717;47.792;12.076;2022-12-07T05:06:27;96081.41;;;2.24;100.00
15229;BME280;7717;47.792;12.076;2022-12-07T05:08:52;96078.03;;;2.24;100.00
15229;BME280;7717;47.792;12.076;2022-12-07T05:11:17;96078.91;;;2.26;100.00
15229;BME280;7717;47.792;12.076;2022-12-07T05:14:03;96081.41;;;2.24;100.00
15229;BME280;7717;47.792;12.076;2022-12-07T05:16:28;96077.19;;;2.25;100.00
15229;BME280;7717;47.792;12.076;2022-12-07T05:18:54;96075.50;;;2.24;100.00
15229;BME280;7717;47.792;12.076;2022-12-07T05:21:19;96062.75;;;2.19;100.00
15229;BME280;7717;47.792;12.076;2022-12-07T05:23:45;96068.63;;;2.18;100.00
15229;BME280;7717;47.792;12.076;2022-12-07T05:26:10;96077.13;;;2.22;100.00
15229;BME280;7717;47.792;12.076;2022-12-07T05:28:35;96081.41;;;2.24;100.00
15229;BME280;7717;47.792;12.076;2022-12-07T05:31:01;96073.63;;;2.16;100.00
15229;BME280;7717;47.792;12.076;2022-12-07T05:33:26;96067.69;;;2.14;100.00
15229;BME280;7717;47.792;12.076;2022-12-07T05:35:51;96071.97;;;2.19;100.00
15229;BME280;7717;47.792;12.076;2022-12-07T05:38:17;96075.44;;;2.21;100.00
15229;BME280;7717;47.792;12.076;2022-12-07T05:40:42;96077.03;;;2.19;100.00
15229;BME280;7717;47.792;12.076;2022-12-07T05:43:07;96078.84;;;2.23;100.00
15229;BME280;7717;47.792;12.076;2022-12-07T05:45:33;96080.34;;;2.16;100.00
15229;BME280;7717;47.792;12.076;2022-12-07T05:47:58;96084.56;;;2.17;100.00
15229;BME280;7717;47.792;12.076;2022-12-07T05:50:24;96081.19;;;2.16;100.00
15229;BME280;7717;47.792;12.076;2022-12-07T05:52:49;96070.16;;;2.46;100.00
15229;BME280;7717;47.792;12.076;2022-12-07T05:55:14;96074.56;;;2.54;100.00
15229;BME280;7717;47.792;12.076;2022-12-07T05:57:40;96078.81;;;2.56;100.00
15229;BME280;7717;47.792;12.076;2022-12-07T06:00:25;96070.47;;;2.59;100.00
15229;BME280;7717;47.792;12.076;2022-12-07T06:02:51;96074.88;;;2.66;100.00
15229;BME280;7717;47.792;12.076;2022-12-07T06:05:16;96071.59;;;2.70;100.00
15229;BME280;7717;47.792;12.076;2022-12-07T06:07:41;96073.25;;;2.69;100.00
15229;BME280;7717;47.792;12.076;2022-12-07T06:10:07;96080.06;;;2.72;100.00
15229;BME280;7717;47.792;12.076;2022-12-07T06:12:32;96085.94;;;2.71;100.00
15229;BME280;7717;47.792;12.076;2022-12-07T06:15:02;96088.16;;;2.59;100.00
15229;BME280;7717;47.792;12.076;2022-12-07T06:17:27;96087.13;;;2.50;100.00
15229;BME280;7717;47.792;12.076;2022-12-07T06:19:53;96090.31;;;2.43;100.00
15229;BME280;7717;47.792;12.076;2022-12-07T06:22:18;96086.78;;;2.37;100.00
15229;BME280;7717;47.792;12.076;2022-12-07T06:24:44;96096.78;;;2.33;100.00
15229;BME280;7717;47.792;12.076;2022-12-07T06:27:09;96097.41;;;2.25;100.00
15229;BME280;7717;47.792;12.076;2022-12-07T06:29:35;96099.75;;;2.19;100.00
15229;BME280;7717;47.792;12.076;2022-12-07T06:32:01;96099.00;;;2.21;100.00
15229;BME280;7717;47.792;12.076;2022-12-07T06:34:27;96104.97;;;2.25;100.00
15229;BME280;7717;47.792;12.076;2022-12-07T06:36:53;96099.91;;;2.25;100.00
15229;BME280;7717;47.792;12.076;2022-12-07T06:39:27;96110.09;;;2.28;100.00
15229;BME280;7717;47.792;12.076;2022-12-07T06:41:53;96104.94;;;2.23;100.00
15229;BME280;7717;47.792;12.076;2022-12-07T06:44:19;96110.94;;;2.27;100.00
15229;BME280;7717;47.792;12.076;2022-12-07T06:46:44;96112.63;;;2.28;100.00
15229;BME280;7717;47.792;12.076;2022-12-07T06:49:10;96122.81;;;2.31;100.00
15229;BME280;7717;47.792;12.076;2022-12-07T06:51:35;96113.63;;;2.33;100.00
15229;BME280;7717;47.792;12.076;2022-12-07T06:54:03;96117.06;;;2.37;100.00
15229;BME280;7717;47.792;12.076;2022-12-07T06:56:28;96118.00;;;2.40;100.00
15229;BME280;7717;47.792;12.076;2022-12-07T06:59:00;96115.53;;;2.42;100.00
15229;BME280;7717;47.792;12.076;2022-12-07T07:01:26;96117.28;;;2.44;100.00
15229;BME280;7717;47.792;12.076;2022-12-07T07:03:51;96130.00;;;2.47;100.00
15229;BME280;7717;47.792;12.076;2022-12-07T07:06:17;96124.78;;;2.41;100.00
15229;BME280;7717;47.792;12.076;2022-12-07T07:08:42;96134.88;;;2.41;100.00
15229;BME280;7717;47.792;12.076;2022-12-07T07:11:09;96146.63;;;2.39;100.00
15229;BME280;7717;47.792;12.076;2022-12-07T07:13:35;96149.78;;;2.32;100.00
15229;BME280;7717;47.792;12.076;2022-12-07T07:16:00;96142.88;;;1.94;100.00
15229;BME280;7717;47.792;12.076;2022-12-07T07:18:26;96161.34;;;1.63;100.00
15229;BME280;7717;47.792;12.076;2022-12-07T07:20:52;96165.09;;;1.21;100.00
15229;BME280;7717;47.792;12.076;2022-12-07T07:23:18;96164.97;;;1.17;100.00
15229;BME280;7717;47.792;12.076;2022-12-07T07:25:44;96167.34;;;1.12;100.00
15229;BME280;7717;47.792;12.076;2022-12-07T07:28:09;96168.97;;;1.10;100.00
15229;BME280;7717;47.792;12.076;2022-12-07T07:30:34;96164.88;;;1.14;100.00
15229;BME280;7717;47.792;12.076;2022-12-07T07:33:01;96164.22;;;1.19;100.00
15229;BME280;7717;47.792;12.076;2022-12-07T07:35:28;96166.94;;;1.25;100.00
15229;BME280;7717;47.792;12.076;2022-12-07T07:37:54;96171.81;;;1.21;100.00
15229;BME280;7717;47.792;12.076;2022-12-07T07:40:19;96168.56;;;1.25;100.00
15229;BME280;7717;47.792;12.076;2022-12-07T07:42:51;96175.44;;;1.29;100.00
15229;BME280;7717;47.792;12.076;2022-12-07T07:45:19;96159.47;;;1.29;100.00
15229;BME280;7717;47.792;12.076;2022-12-07T07:47:44;96170.25;;;1.24;100.00
15229;BME280;7717;47.792;12.076;2022-12-07T07:50:10;96176.81;;;1.19;100.00
15229;BME280;7717;47.792;12.076;2022-12-07T07:52:35;96165.25;;;0.99;100.00
15229;BME280;7717;47.792;12.076;2022-12-07T07:55:01;96185.22;;;1.20;100.00
15229;BME280;7717;47.792;12.076;2022-12-07T07:57:26;96182.91;;;1.26;100.00
15229;BME280;7717;47.792;12.076;2022-12-07T07:59:52;96192.00;;;1.21;100.00
15229;BME280;7717;47.792;12.076;2022-12-07T08:02:18;96193.38;;;1.11;100.00
15229;BME280;7717;47.792;12.076;2022-12-07T08:04:45;96185.41;;;1.26;100.00
15229;BME280;7717;47.792;12.076;2022-12-07T08:07:11;96188.22;;;1.35;100.00
15229;BME280;7717;47.792;12.076;2022-12-07T08:09:37;96188.97;;;1.33;100.00
15229;BME280;7717;47.792;12.076;2022-12-07T08:12:03;96187.25;;;1.30;100.00
15229;BME280;7717;47.792;12.076;2022-12-07T08:14:29;96197.03;;;1.21;100.00
15229;BME280;7717;47.792;12.076;2022-12-07T08:16:54;96204.50;;;1.18;100.00
15229;BME280;7717;47.792;12.076;2022-12-07T08:19:20;96200.69;;;1.31;100.00
15229;BME280;7717;47.792;12.076;2022-12-07T08:21:45;96206.44;;;1.26;100.00
15229;BME280;7717;47.792;12.076;2022-12-07T08:24:11;96203.78;;;1.22;100.00
15229;BME280;7717;47.792;12.076;2022-12-07T08:26:36;96204.22;;;1.36;100.00
15229;BME280;7717;47.792;12.076;2022-12-07T08:29:02;96208.03;;;1.50;100.00
15229;BME280;7717;47.792;12.076;2022-12-07T08:31:27;96200.06;;;1.65;100.00
15229;BME280;7717;47.792;12.076;2022-12-07T08:33:53;96203.13;;;1.84;100.00
15229;BME280;7717;47.792;12.076;2022-12-07T08:36:19;96207.47;;;1.88;100.00
15229;BME280;7717;47.792;12.076;2022-12-07T08:38:44;96209.97;;;1.86;100.00
15229;BME280;7717;47.792;12.076;2022-12-07T08:41:10;96205.97;;;1.66;100.00
15229;BME280;7717;47.792;12.076;2022-12-07T08:43:36;96200.53;;;1.52;100.00
15229;BME280;7717;47.792;12.076;2022-12-07T08:46:41;96208.84;;;1.49;100.00
15229;BME280;7717;47.792;12.076;2022-12-07T08:49:13;96208.66;;;1.72;100.00
15229;BME280;7717;47.792;12.076;2022-12-07T08:51:41;96204.16;;;1.90;100.00
15229;BME280;7717;47.792;12.076;2022-12-07T08:54:10;96203.94;;;1.83;100.00
15229;BME280;7717;47.792;12.076;2022-12-07T08:56:36;96204.50;;;1.72;100.00
15229;BME280;7717;47.792;12.076;2022-12-07T08:59:03;96203.31;;;1.90;100.00
15229;BME280;7717;47.792;12.076;2022-12-07T09:01:28;96208.94;;;2.10;100.00
15229;BME280;7717;47.792;12.076;2022-12-07T09:03:54;96214.44;;;2.25;100.00
15229;BME280;7717;47.792;12.076;2022-12-07T09:06:20;96208.34;;;2.19;100.00
15229;BME280;7717;47.792;12.076;2022-12-07T09:08:47;96206.69;;;2.19;100.00
15229;BME280;7717;47.792;12.076;2022-12-07T09:11:14;96212.81;;;2.27;100.00
15229;BME280;7717;47.792;12.076;2022-12-07T09:13:39;96214.00;;;2.10;100.00
15229;BME280;7717;47.792;12.076;2022-12-07T09:16:05;96209.94;;;2.15;100.00
15229;BME280;7717;47.792;12.076;2022-12-07T09:18:30;96208.41;;;2.22;100.00
15229;BME280;7717;47.792;12.076;2022-12-07T09:20:56;96207.06;;;2.33;100.00
15229;BME280;7717;47.792;12.076;2022-12-07T09:23:21;96204.72;;;2.39;100.00
15229;BME280;7717;47.792;12.076;2022-12-07T09:25:47;96201.44;;;2.43;100.00
15229;BME280;7717;47.792;12.076;2022-12-07T09:28:12;96198.41;;;2.55;100.00
15229;BME280;7717;47.792;12.076;2022-12-07T09:30:38;96203.53;;;2.58;100.00
15229;BME280;7717;47.792;12.076;2022-12-07T09:36:26;96192.72;;;2.64;100.00
15229;BME280;7717;47.792;12.076;2022-12-07T09:38:51;96185.81;;;2.57;100.00
15229;BME280;7717;47.792;12.076;2022-12-07T09:41:18;96187.91;;;2.73;100.00
15229;BME280;7717;47.792;12.076;2022-12-07T09:43:44;96188.81;;;2.75;100.00
15229;BME280;7717;47.792;12.076;2022-12-07T09:46:14;96182.38;;;2.86;100.00
15229;BME280;7717;47.792;12.076;2022-12-07T09:48:41;96172.94;;;2.81;100.00
15229;BME280;7717;47.792;12.076;2022-12-07T09:51:15;96168.91;;;2.89;100.00
15229;BME280;7717;47.792;12.076;2022-12-07T09:53:42;96174.69;;;2.83;100.00
15229;BME280;7717;47.792;12.076;2022-12-07T09:56:12;96175.69;;;2.90;100.00
15229;BME280;7717;47.792;12.076;2022-12-07T09:58:38;96165.13;;;3.05;100.00
15229;BME280;7717;47.792;12.076;2022-12-07T10:03:32;96162.59;;;3.05;100.00
15229;BME280;7717;47.792;12.076;2022-12-07T10:05:59;96158.56;;;3.13;100.00
15229;BME280;7717;47.792;12.076;2022-12-07T10:08:25;96138.88;;;3.01;100.00
15229;BME280;7717;47.792;12.076;2022-12-07T10:10:53;96143.25;;;3.07;100.00
15229;BME280;7717;47.792;12.076;2022-12-07T10:13:20;96145.03;;;3.11;100.00
15229;BME280;7717;47.792;12.076;2022-12-07T10:15:53;96139.84;;;3.05;100.00
15229;BME280;7717;47.792;12.076;2022-12-07T10:21:21;96129.84;;;3.10;100.00
15229;BME280;7717;47.792;12.076;2022-12-07T10:24:08;96131.56;;;3.12;100.00
15229;BME280;7717;47.792;12.076;2022-12-07T10:26:51;96106.94;;;3.03;100.00
15229;BME280;7717;47.792;12.076;2022-12-07T10:29:30;96119.56;;;3.03;100.00
15229;BME280;7717;47.792;12.076;2022-12-07T10:31:58;96112.03;;;3.05;100.00
15229;BME280;7717;47.792;12.076;2022-12-07T10:37:11;96108.25;;;3.24;100.00
15229;BME280;7717;47.792;12.076;2022-12-07T10:39:42;96108.72;;;3.46;100.00
15229;BME280;7717;47.792;12.076;2022-12-07T10:42:19;96100.09;;;3.37;100.00
15229;BME280;7717;47.792;12.076;2022-12-07T10:44:46;96102.34;;;3.63;100.00
15229;BME280;7717;47.792;12.076;2022-12-07T10:56:03;96106.75;;;3.34;100.00
15229;BME280;7717;47.792;12.076;2022-12-07T11:01:41;96107.75;;;3.40;100.00
15229;BME280;7717;47.792;12.076;2022-12-07T11:09:54;96095.44;;;3.57;100.00
15229;BME280;7717;47.792;12.076;2022-12-07T11:12:39;96091.34;;;3.61;100.00
15229;BME280;7717;47.792;12.076;2022-12-07T11:18:11;96081.28;;;3.64;100.00
15229;BME280;7717;47.792;12.076;2022-12-07T11:29:50;96075.97;;;3.52;100.00
15229;BME280;7717;47.792;12.076;2022-12-07T11:32:41;96071.13;;;3.63;100.00
15229;BME280;7717;47.792;12.076;2022-12-07T11:37:59;96061.69;;;3.55;100.00
15229;BME280;7717;47.792;12.076;2022-12-07T11:40:30;96055.78;;;3.55;100.00
15229;BME280;7717;47.792;12.076;2022-12-07T11:45:58;96056.16;;;3.75;100.00
15229;BME280;7717;47.792;12.076;2022-12-07T11:48:33;96045.28;;;3.79;100.00
15229;BME280;7717;47.792;12.076;2022-12-07T11:51:01;96043.25;;;4.07;100.00
15229;BME280;7717;47.792;12.076;2022-12-07T11:53:45;96035.78;;;4.13;100.00
15229;BME280;7717;47.792;12.076;2022-12-07T11:56:17;96030.78;;;4.16;100.00
15229;BME280;7717;47.792;12.076;2022-12-07T12:04:18;96011.59;;;4.30;100.00
15229;BME280;7717;47.792;12.076;2022-12-07T12:06:49;96011.28;;;4.12;100.00
15229;BME280;7717;47.792;12.076;2022-12-07T12:09:17;96017.84;;;4.02;100.00
15229;BME280;7717;47.792;12.076;2022-12-07T12:17:36;96023.09;;;4.11;100.00
15229;BME280;7717;47.792;12.076;2022-12-07T12:22:55;96016.47;;;4.20;100.00
15229;BME280;7717;47.792;12.076;2022-12-07T12:25:29;96021.97;;;3.95;100.00
15229;BME280;7717;47.792;12.076;2022-12-07T12:27:59;96022.59;;;3.85;100.00
15229;BME280;7717;47.792;12.076;2022-12-07T12:30:33;96018.66;;;4.00;100.00
15229;BME280;7717;47.792;12.076;2022-12-07T12:33:06;96010.44;;;4.13;100.00
15229;BME280;7717;47.792;12.076;2022-12-07T12:35:41;96013.06;;;4.18;100.00
15229;BME280;7717;47.792;12.076;2022-12-07T12:40:50;96002.47;;;3.91;100.00
15229;BME280;7717;47.792;12.076;2022-12-07T12:43:45;96012.97;;;4.11;100.00
15229;BME280;7717;47.792;12.076;2022-12-07T12:57:17;95993.66;;;4.18;100.00
15229;BME280;7717;47.792;12.076;2022-12-07T13:02:21;95980.94;;;4.15;100.00
15229;BME280;7717;47.792;12.076;2022-12-07T13:04:53;96003.03;;;4.24;100.00
15229;BME280;7717;47.792;12.076;2022-12-07T13:10:42;95997.88;;;3.72;100.00
15229;BME280;7717;47.792;12.076;2022-12-07T13:15:54;95984.69;;;3.88;100.00
15229;BME280;7717;47.792;12.076;2022-12-07T13:28:49;95984.56;;;3.82;100.00
15229;BME280;7717;47.792;12.076;2022-12-07T13:31:35;95987.75;;;3.72;100.00
15229;BME280;7717;47.792;12.076;2022-12-07T13:34:04;95980.94;;;3.68;100.00
15229;BME280;7717;47.792;12.076;2022-12-07T13:36:33;95988.59;;;3.71;100.00
15229;BME280;7717;47.792;12.076;2022-12-07T13:39:18;95990.47;;;3.83;100.00
15229;BME280;7717;47.792;12.076;2022-12-07T13:41:50;95986.19;;;3.77;100.00
15229;BME280;7717;47.792;12.076;2022-12-07T13:44:18;95978.38;;;3.66;100.00
15229;BME280;7717;47.792;12.076;2022-12-07T13:51:48;95970.91;;;3.72;100.00
15229;BME280;7717;47.792;12.076;2022-12-07T13:54:14;95985.34;;;3.78;100.00
15229;BME280;7717;47.792;12.076;2022-12-07T13:56:40;95984.50;;;3.79;100.00
15229;BME280;7717;47.792;12.076;2022-12-07T13:59:16;95983.63;;;3.75;100.00
15229;BME280;7717;47.792;12.076;2022-12-07T14:01:41;95981.00;;;3.71;100.00
15229;BME280;7717;47.792;12.076;2022-12-07T14:04:36;95974.22;;;3.70;100.00
15229;BME280;7717;47.792;12.076;2022-12-07T14:10:29;95978.19;;;3.55;100.00
15229;BME280;7717;47.792;12.076;2022-12-07T14:12:56;95979.63;;;3.42;100.00
15229;BME280;7717;47.792;12.076;2022-12-07T14:15:25;95987.06;;;3.35;100.00
15229;BME280;7717;47.792;12.076;2022-12-07T14:17:54;95987.16;;;3.39;100.00
15229;BME280;7717;47.792;12.076;2022-12-07T14:20:40;95985.50;;;3.41;100.00
15229;BME280;7717;47.792;12.076;2022-12-07T14:23:22;95986.34;;;3.42;100.00
15229;BME280;7717;47.792;12.076;2022-12-07T14:25:51;95984.72;;;3.44;100.00
15229;BME280;7717;47.792;12.076;2022-12-07T14:28:31;95981.19;;;3.37;100.00
15229;BME280;7717;47.792;12.076;2022-12-07T14:30:57;95980.22;;;3.31;100.00
15229;BME280;7717;47.792;12.076;2022-12-07T14:33:24;95971.75;;;3.29;100.00
15229;BME280;7717;47.792;12.076;2022-12-07T14:35:49;95976.81;;;3.29;100.00
15229;BME280;7717;47.792;12.076;2022-12-07T14:38:15;95982.69;;;3.28;100.00
15229;BME280;7717;47.792;12.076;2022-12-07T14:40:40;95979.22;;;3.22;100.00
15229;BME280;7717;47.792;12.076;2022-12-07T14:43:12;95985.09;;;3.21;100.00
15229;BME280;7717;47.792;12.076;2022-12-07T14:45:38;95974.06;;;3.18;100.00
15229;BME280;7717;47.792;12.076;2022-12-07T14:48:05;95981.50;;;3.12;100.00
15229;BME280;7717;47.792;12.076;2022-12-07T14:50:36;95978.81;;;3.04;100.00
15229;BME280;7717;47.792;12.076;2022-12-07T14:53:10;95980.28;;;2.93;100.00
15229;BME280;7717;47.792;12.076;2022-12-07T14:55:37;95978.56;;;2.92;100.00
15229;BME280;7717;47.792;12.076;2022-12-07T14:58:02;95971.78;;;2.91;100.00
15229;BME280;7717;47.792;12.076;2022-12-07T15:00:28;95980.97;;;2.87;100.00
15229;BME280;7717;47.792;12.076;2022-12-07T15:02:54;95973.31;;;2.82;100.00
15229;BME280;7717;47.792;12.076;2022-12-07T15:05:20;95978.34;;;2.82;100.00
15229;BME280;7717;47.792;12.076;2022-12-07T15:07:47;95971.66;;;2.84;100.00
15229;BME280;7717;47.792;12.076;2022-12-07T15:10:17;95969.09;;;2.81;100.00
15229;BME280;7717;47.792;12.076;2022-12-07T15:12:44;95967.19;;;2.73;100.00
15229;BME280;7717;47.792;12.076;2022-12-07T15:15:09;95963.75;;;2.69;100.00